Time;durP1;ratioP1;P1;durP2;ratioP2;P2;SDS_P1;SDS_P2;PMS_P1;PMS_P2;Temp;Humidity;BMP_temperature;BMP_pressure;BME280_temperature;BME280_humidity;BME280_pressure;Samples;Min_cycle;Max_cycle;Signal;HPM_P1;HPM_P2
2021/09/02 00:00:46;;;;;;;;;;;;;;;12.05;100.00;101885.13;5073203;28;19955;-70
2021/09/02 00:03:12;;;;;;;;;;;;;;;12.08;100.00;101890.38;5073149;28;20354;-70
2021/09/02 00:05:38;;;;;;;;;;;;;;;12.09;100.00;101883.91;5055243;28;19924;-71
2021/09/02 00:08:07;;;;;;;;;;;;;;;12.10;100.00;101882.09;5072817;28;19925;-70
2021/09/02 00:10:34;;;;;;;;;;;;;;;12.14;100.00;101878.16;5072569;28;19925;-70
2021/09/02 00:13:00;;;;;;;;;;;;;;;12.16;100.00;101874.38;5072859;28;19924;-70
2021/09/02 00:15:26;;;;;;;;;;;;;;;12.16;100.00;101882.53;5072863;28;19925;-70
2021/09/02 00:17:53;;;;;;;;;;;;;;;12.13;100.00;101887.31;5073176;28;19924;-70
2021/09/02 00:20:19;;;;;;;;;;;;;;;12.08;100.00;101884.91;5072581;28;20450;-70
2021/09/02 00:22:45;;;;;;;;;;;;;;;11.99;100.00;101880.13;5072944;28;19928;-70
2021/09/02 00:25:13;;;;;;;;;;;;;;;11.93;100.00;101884.06;5072835;28;19982;-70
2021/09/02 00:27:39;;;;;;;;;;;;;;;11.89;100.00;101880.72;5072416;28;19929;-71
2021/09/02 00:30:06;;;;;;;;;;;;;;;11.84;100.00;101888.31;5072514;28;19928;-71
2021/09/02 00:32:33;;;;;;;;;;;;;;;11.84;100.00;101877.44;5072428;28;19931;-70
2021/09/02 00:34:59;;;;;;;;;;;;;;;11.84;100.00;101893.75;5072817;28;20372;-71
2021/09/02 00:37:25;;;;;;;;;;;;;;;11.83;100.00;101892.00;5072077;28;20401;-70
2021/09/02 00:39:51;;;;;;;;;;;;;;;11.84;100.00;101893.75;5072777;28;19924;-70
2021/09/02 00:42:19;;;;;;;;;;;;;;;11.81;100.00;101888.53;5072760;28;20028;-70
2021/09/02 00:44:49;;;;;;;;;;;;;;;11.84;100.00;101891.03;5071383;28;20340;-71
2021/09/02 00:47:15;;;;;;;;;;;;;;;11.84;100.00;101901.06;5072147;28;20111;-70
2021/09/02 00:49:42;;;;;;;;;;;;;;;11.85;100.00;101894.59;5071904;28;19928;-70
2021/09/02 00:52:09;;;;;;;;;;;;;;;11.84;100.00;101893.75;5072472;28;19925;-70
2021/09/02 00:54:36;;;;;;;;;;;;;;;11.85;100.00;101892.78;5072191;28;19929;-70
2021/09/02 00:57:02;;;;;;;;;;;;;;;11.83;100.00;101902.88;5071719;28;19924;-70
2021/09/02 00:59:30;;;;;;;;;;;;;;;11.82;100.00;101894.84;5072113;28;19924;-70
2021/09/02 01:01:56;;;;;;;;;;;;;;;11.82;100.00;101900.28;5071831;28;20367;-70
2021/09/02 01:04:23;;;;;;;;;;;;;;;11.78;100.00;101894.16;5072100;28;19959;-70
2021/09/02 01:06:50;;;;;;;;;;;;;;;11.74;100.00;101889.91;5071505;28;19978;-70
2021/09/02 01:09:17;;;;;;;;;;;;;;;11.73;100.00;101894.47;5071845;28;19931;-70
2021/09/02 01:11:43;;;;;;;;;;;;;;;11.74;100.00;101892.63;5072008;28;19928;-70
2021/09/02 01:14:15;;;;;;;;;;;;;;;11.68;100.00;101893.06;5071580;28;19966;-71
2021/09/02 01:16:42;;;;;;;;;;;;;;;11.68;100.00;101899.34;5071688;28;20023;-70
2021/09/02 01:19:08;;;;;;;;;;;;;;;11.67;100.00;101892.16;5071609;28;19925;-70
2021/09/02 01:21:35;;;;;;;;;;;;;;;11.70;100.00;101901.97;5071538;28;19931;-70
2021/09/02 01:24:02;;;;;;;;;;;;;;;11.73;100.00;101891.75;5071579;28;19924;-70
2021/09/02 01:26:29;;;;;;;;;;;;;;;11.76;100.00;101898.84;5071077;28;19924;-70
2021/09/02 01:28:55;;;;;;;;;;;;;;;11.80;100.00;101902.22;5071609;28;20020;-69
2021/09/02 01:31:21;;;;;;;;;;;;;;;11.82;100.00;101897.56;5071439;28;19930;-69
2021/09/02 01:33:48;;;;;;;;;;;;;;;11.82;100.00;101903.00;5071569;28;19924;-70
2021/09/02 01:36:15;;;;;;;;;;;;;;;11.83;100.00;101896.59;5071432;28;20035;-70
2021/09/02 01:38:41;;;;;;;;;;;;;;;11.83;100.00;101893.84;5070604;28;20103;-70
2021/09/02 01:41:09;;;;;;;;;;;;;;;11.82;100.00;101895.69;5071532;28;19924;-70
2021/09/02 01:43:35;;;;;;;;;;;;;;;11.82;100.00;101886.66;5070097;28;20023;-70
2021/09/02 01:46:01;;;;;;;;;;;;;;;11.84;100.00;101887.44;5069802;28;19925;-70
2021/09/02 01:48:31;;;;;;;;;;;;;;;11.86;100.00;101891.78;5069945;28;20306;-70
2021/09/02 01:50:57;;;;;;;;;;;;;;;11.83;100.00;101894.72;5070079;28;20406;-71
2021/09/02 01:53:23;;;;;;;;;;;;;;;11.82;100.00;101895.69;5070716;28;20441;-70
2021/09/02 01:55:50;;;;;;;;;;;;;;;11.78;100.00;101888.72;5069094;28;19959;-71
2021/09/02 01:58:17;;;;;;;;;;;;;;;11.75;100.00;101897.09;5068631;28;19934;-71
2021/09/02 02:00:44;;;;;;;;;;;;;;;11.72;100.00;101890.00;5070646;28;20015;-71
2021/09/02 02:03:10;;;;;;;;;;;;;;;11.71;100.00;101895.56;5070720;28;20019;-70
2021/09/02 02:05:36;;;;;;;;;;;;;;;11.73;100.00;101894.47;5070908;28;20388;-70
2021/09/02 02:08:03;;;;;;;;;;;;;;;11.74;100.00;101881.75;5070797;28;20366;-70
2021/09/02 02:10:31;;;;;;;;;;;;;;;11.75;100.00;101883.50;5071051;28;19936;-70
2021/09/02 02:12:58;;;;;;;;;;;;;;;11.75;100.00;101878.06;5071145;28;19986;-70
2021/09/02 02:15:26;;;;;;;;;;;;;;;11.83;100.00;101883.84;5070508;28;20023;-70
2021/09/02 02:17:53;;;;;;;;;;;;;;;11.85;100.00;101890.06;5070945;28;20363;-70
2021/09/02 02:20:19;;;;;;;;;;;;;;;11.82;100.00;101881.22;5070898;28;20359;-70
2021/09/02 02:22:46;;;;;;;;;;;;;;;11.81;100.00;101882.19;5070683;28;19967;-70
2021/09/02 02:25:14;;;;;;;;;;;;;;;11.80;100.00;101878.63;5070906;28;20023;-70
2021/09/02 02:27:40;;;;;;;;;;;;;;;11.76;100.00;101879.81;5070296;28;19925;-70
2021/09/02 02:30:08;;;;;;;;;;;;;;;11.73;100.00;101882.72;5070847;28;19968;-71
2021/09/02 02:32:36;;;;;;;;;;;;;;;11.67;100.00;101873.13;5070082;28;20439;-70
2021/09/02 02:35:03;;;;;;;;;;;;;;;11.58;100.00;101878.31;5070063;28;20017;-70
2021/09/02 02:37:30;;;;;;;;;;;;;;;11.53;100.00;101873.19;5070839;28;20022;-70
2021/09/02 02:39:56;;;;;;;;;;;;;;;11.48;100.00;101876.22;5070258;28;20031;-70
2021/09/02 02:42:22;;;;;;;;;;;;;;;11.43;100.00;101885.66;5070877;28;20019;-70
2021/09/02 02:44:49;;;;;;;;;;;;;;;11.39;100.00;101890.44;5070659;28;19928;-70
2021/09/02 02:47:15;;;;;;;;;;;;;;;11.36;100.00;101880.63;5070585;28;19932;-70
2021/09/02 02:49:43;;;;;;;;;;;;;;;11.36;100.00;101885.19;5070645;28;20026;-70
2021/09/02 02:52:09;;;;;;;;;;;;;;;11.32;100.00;101881.81;5070458;28;20451;-70
2021/09/02 02:54:36;;;;;;;;;;;;;;;11.29;100.00;101875.69;5070501;28;20276;-70
2021/09/02 02:57:02;;;;;;;;;;;;;;;11.27;100.00;101877.66;5070145;28;20324;-70
2021/09/02 02:59:28;;;;;;;;;;;;;;;11.30;100.00;101877.44;5070529;28;20390;-70
2021/09/02 03:01:55;;;;;;;;;;;;;;;11.32;100.00;101879.09;5070738;28;19963;-70
2021/09/02 03:04:21;;;;;;;;;;;;;;;11.33;100.00;101880.84;5070521;28;20384;-70
2021/09/02 03:06:49;;;;;;;;;;;;;;;11.29;100.00;101876.59;5070121;28;20019;-70
2021/09/02 03:09:15;;;;;;;;;;;;;;;11.26;100.00;101881.34;5073077;28;19931;-70
2021/09/02 03:11:41;;;;;;;;;;;;;;;11.23;100.00;101875.13;5074229;28;20467;-70
2021/09/02 03:14:07;;;;;;;;;;;;;;;11.16;100.00;101867.50;5074438;28;20023;-70
2021/09/02 03:16:34;;;;;;;;;;;;;;;11.11;100.00;101873.22;5073372;28;20019;-70
2021/09/02 03:19:00;;;;;;;;;;;;;;;11.01;100.00;101877.50;5074405;28;19924;-70
2021/09/02 03:21:26;;;;;;;;;;;;;;;10.94;100.00;101878.88;5073773;28;20387;-70
2021/09/02 03:23:54;;;;;;;;;;;;;;;10.89;100.00;101881.91;5074284;28;20249;-70
2021/09/02 03:26:20;;;;;;;;;;;;;;;10.83;100.00;101883.16;5073922;28;20471;-70
2021/09/02 03:28:47;;;;;;;;;;;;;;;10.77;100.00;101880.84;5073456;28;20015;-70
2021/09/02 03:31:13;;;;;;;;;;;;;;;10.76;100.00;101884.53;5073955;28;20031;-69
2021/09/02 03:33:39;;;;;;;;;;;;;;;10.72;100.00;101880.25;5073425;28;20011;-70
2021/09/02 03:36:06;;;;;;;;;;;;;;;10.69;100.00;101885.91;5073757;28;20027;-70
2021/09/02 03:38:32;;;;;;;;;;;;;;;10.64;100.00;101891.59;5073619;28;20015;-69
2021/09/02 03:41:00;;;;;;;;;;;;;;;10.59;100.00;101885.56;5073342;28;20027;-70
2021/09/02 03:43:26;;;;;;;;;;;;;;;10.57;100.00;101889.34;5073774;28;19956;-69
2021/09/02 03:45:52;;;;;;;;;;;;;;;10.54;100.00;101893.13;5073046;28;20019;-70
2021/09/02 03:48:18;;;;;;;;;;;;;;;10.53;100.00;101891.41;5073638;28;19964;-69
2021/09/02 03:50:45;;;;;;;;;;;;;;;10.50;100.00;101886.16;5073409;28;20365;-69
2021/09/02 03:53:11;;;;;;;;;;;;;;;10.44;100.00;101890.13;5073031;28;20011;-70
2021/09/02 03:55:37;;;;;;;;;;;;;;;10.44;100.00;101895.56;5072931;28;20015;-70
2021/09/02 03:58:07;;;;;;;;;;;;;;;10.41;100.00;101894.88;5072889;28;19962;-69
2021/09/02 04:00:33;;;;;;;;;;;;;;;10.38;100.00;101899.53;5055480;28;20372;-69
2021/09/02 04:03:00;;;;;;;;;;;;;;;10.34;100.00;101897.06;5073263;28;19924;-69
2021/09/02 04:05:26;;;;;;;;;;;;;;;10.34;100.00;101899.78;5072973;28;20032;-70
2021/09/02 04:07:52;;;;;;;;;;;;;;;10.35;100.00;101890.69;5072955;28;20014;-70
2021/09/02 04:10:18;;;;;;;;;;;;;;;10.36;100.00;101897.88;5072667;28;20030;-70
2021/09/02 04:12:45;;;;;;;;;;;;;;;10.38;100.00;101901.34;5073177;28;20357;-70
2021/09/02 04:15:12;;;;;;;;;;;;;;;10.37;100.00;101899.63;5073092;28;19925;-71
2021/09/02 04:17:39;;;;;;;;;;;;;;;10.33;100.00;101898.91;5072860;28;20015;-71
2021/09/02 04:20:05;;;;;;;;;;;;;;;10.32;100.00;101901.72;5072301;28;20019;-71
2021/09/02 04:22:32;;;;;;;;;;;;;;;10.30;100.00;101900.94;5072856;28;20399;-70
2021/09/02 04:24:58;;;;;;;;;;;;;;;10.32;100.00;101901.72;5072994;28;20377;-70
2021/09/02 04:27:24;;;;;;;;;;;;;;;10.30;100.00;101890.06;5072478;28;20024;-71
2021/09/02 04:29:50;;;;;;;;;;;;;;;10.32;100.00;101907.16;5072653;28;20032;-70
2021/09/02 04:32:18;;;;;;;;;;;;;;;10.32;100.00;101902.59;5073077;28;20451;-70
2021/09/02 04:34:44;;;;;;;;;;;;;;;10.33;100.00;101908.91;5072068;28;20020;-71
2021/09/02 04:37:11;;;;;;;;;;;;;;;10.38;100.00;101907.69;5070718;28;19932;-70
2021/09/02 04:39:37;;;;;;;;;;;;;;;10.41;100.00;101903.00;5067579;28;20020;-70
2021/09/02 04:42:04;;;;;;;;;;;;;;;10.44;100.00;101897.41;5054763;28;20027;-73
2021/09/02 04:44:30;;;;;;;;;;;;;;;10.46;100.00;101909.94;5053590;28;20012;-72
2021/09/02 04:46:56;;;;;;;;;;;;;;;10.50;100.00;101911.47;5062191;28;20015;-73
2021/09/02 04:49:24;;;;;;;;;;;;;;;10.54;100.00;101913.03;5052547;28;20371;-72
2021/09/02 04:51:50;;;;;;;;;;;;;;;10.62;100.00;101908.94;5054062;28;19970;-72
2021/09/02 04:54:17;;;;;;;;;;;;;;;10.63;100.00;101906.13;5072364;28;19955;-72
2021/09/02 04:56:43;;;;;;;;;;;;;;;10.70;100.00;101912.06;5072168;28;19928;-72
2021/09/02 04:59:09;;;;;;;;;;;;;;;10.78;100.00;101911.56;5072066;28;20015;-72
2021/09/02 05:01:36;;;;;;;;;;;;;;;10.85;100.00;101911.09;5072142;28;20015;-73
2021/09/02 05:04:02;;;;;;;;;;;;;;;10.94;100.00;101919.63;5071729;28;20258;-73
2021/09/02 05:06:30;;;;;;;;;;;;;;;11.00;100.00;101919.25;5071936;28;19928;-73
2021/09/02 05:08:56;;;;;;;;;;;;;;;11.06;100.00;101918.81;5071976;28;20023;-73
2021/09/02 05:11:22;;;;;;;;;;;;;;;11.16;100.00;101925.44;5071573;28;20015;-73
2021/09/02 05:13:48;;;;;;;;;;;;;;;11.27;100.00;101932.03;5072187;28;20150;-73
2021/09/02 05:16:15;;;;;;;;;;;;;;;11.40;100.00;101935.69;5071549;28;20511;-72
2021/09/02 05:18:41;;;;;;;;;;;;;;;11.53;100.00;101935.72;5071608;28;20022;-73
2021/09/02 05:21:07;;;;;;;;;;;;;;;11.62;100.00;101937.84;5071732;28;20362;-72
2021/09/02 05:23:35;;;;;;;;;;;;;;;11.76;100.00;101944.19;5068325;28;19928;-72
2021/09/02 05:26:01;;;;;;;;;;;;;;;11.96;100.00;101938.34;5052947;28;20015;-72
2021/09/02 05:28:27;;;;;;;;;;;;;;;12.21;100.00;101934.81;5050761;28;20032;-71
2021/09/02 05:30:54;;;;;;;;;;;;;;;12.56;100.00;101939.63;5050821;28;19931;-73
2021/09/02 05:33:20;;;;;;;;;;;;;;;13.02;100.00;101930.00;5052497;28;20024;-72
2021/09/02 05:35:46;;;;;;;;;;;;;;;13.41;100.00;101915.47;5066218;28;19924;-72
2021/09/02 05:38:13;;;;;;;;;;;;;;;13.84;100.00;101913.09;5069604;28;20004;-72
2021/09/02 05:40:41;;;;;;;;;;;;;;;14.18;100.00;101906.88;5069137;28;20022;-72
2021/09/02 05:43:07;;;;;;;;;;;;;;;14.52;100.00;101899.66;5069777;28;20048;-72
2021/09/02 05:45:33;;;;;;;;;;;;;;;14.83;100.00;101899.94;5069782;28;19971;-72
2021/09/02 05:48:02;;;;;;;;;;;;;;;15.08;100.00;101889.72;5069714;28;20023;-72
2021/09/02 05:50:28;;;;;;;;;;;;;;;15.19;100.00;101891.56;5070029;28;20428;-72
2021/09/02 05:52:54;;;;;;;;;;;;;;;15.34;100.00;101901.25;5069630;28;19928;-72
2021/09/02 05:55:21;;;;;;;;;;;;;;;15.65;100.00;101893.22;5070971;28;19959;-72
2021/09/02 05:57:49;;;;;;;;;;;;;;;15.85;100.00;101904.38;5071116;28;19931;-72
2021/09/02 06:00:15;;;;;;;;;;;;;;;16.12;100.00;101905.75;5071084;28;20015;-72
2021/09/02 06:02:41;;;;;;;;;;;;;;;16.34;100.00;101893.78;5071040;28;19924;-72
2021/09/02 06:05:08;;;;;;;;;;;;;;;16.48;100.00;101896.19;5071133;28;20027;-72
2021/09/02 06:07:35;;;;;;;;;;;;;;;16.64;100.00;101897.59;5071128;28;20469;-72
2021/09/02 06:10:01;;;;;;;;;;;;;;;16.71;100.00;101902.34;5071453;28;20023;-72
2021/09/02 06:12:27;;;;;;;;;;;;;;;17.00;100.00;101906.28;5070951;28;19960;-72
2021/09/02 06:14:55;;;;;;;;;;;;;;;17.24;100.00;101901.31;5070924;28;19924;-72
2021/09/02 06:17:21;;;;;;;;;;;;;;;17.61;100.00;101905.31;5070740;28;19959;-72
2021/09/02 06:19:47;;;;;;;;;;;;;;;17.80;100.00;101900.81;5071210;28;20019;-72
2021/09/02 06:22:14;;;;;;;;;;;;;;;17.76;100.00;101903.00;5071264;28;20396;-72
2021/09/02 06:24:40;;;;;;;;;;;;;;;17.76;100.00;101904.84;5071199;28;20023;-72
2021/09/02 06:27:06;;;;;;;;;;;;;;;17.77;100.00;101903.84;5071045;28;20015;-72
2021/09/02 06:29:32;;;;;;;;;;;;;;;17.92;100.00;101902.47;5070673;28;20024;-72
2021/09/02 06:32:01;;;;;;;;;;;;;;;18.14;100.00;101904.03;5070963;28;19964;-72
2021/09/02 06:34:28;;;;;;;;;;;;;;;18.18;100.00;101905.47;5069138;28;19931;-72
2021/09/02 06:36:54;;;;;;;;;;;;;;;18.35;100.00;101914.00;5070858;28;20384;-72
2021/09/02 06:39:20;;;;;;;;;;;;;;;18.70;100.00;101904.22;5071198;28;20031;-72
2021/09/02 06:41:47;;;;;;;;;;;;;;;18.92;100.00;101904.88;5070595;28;20023;-71
2021/09/02 06:44:13;;;;;;;;;;;;;;;19.21;100.00;101905.63;5055951;28;20346;-72
2021/09/02 06:46:40;;;;;;;;;;;;;;;19.09;100.00;101906.81;5074663;28;19928;-71
2021/09/02 06:49:08;;;;;;;;;;;;;;;18.55;100.00;101914.81;5074658;28;20407;-72
2021/09/02 06:51:36;;;;;;;;;;;;;;;18.28;100.00;101919.22;5073106;28;20368;-71
2021/09/02 06:54:02;;;;;;;;;;;;;;;18.80;100.00;101913.31;5074350;28;19928;-72
2021/09/02 06:56:28;;;;;;;;;;;;;;;18.87;100.00;101913.56;5074928;28;20486;-71
2021/09/02 06:58:54;;;;;;;;;;;;;;;19.14;100.00;101912.75;5073964;28;20043;-71
2021/09/02 07:01:21;;;;;;;;;;;;;;;19.26;100.00;101918.06;5074832;28;19925;-71
2021/09/02 07:03:47;;;;;;;;;;;;;;;19.44;100.00;101921.72;5073746;28;20426;-71
2021/09/02 07:06:15;;;;;;;;;;;;;;;19.40;100.00;101914.78;5074185;28;19956;-71
2021/09/02 07:08:41;;;;;;;;;;;;;;;19.39;100.00;101916.66;5069807;28;19937;-72
2021/09/02 07:11:07;;;;;;;;;;;;;;;19.35;100.00;101917.16;5069845;28;20055;-71
2021/09/02 07:13:33;;;;;;;;;;;;;;;19.34;100.00;101918.16;5073428;28;19978;-71
2021/09/02 07:16:00;;;;;;;;;;;;;;;19.72;100.00;101917.03;5072999;28;19940;-71
2021/09/02 07:18:27;;;;;;;;;;;;;;;19.78;100.00;101922.94;5072727;28;19946;-71
2021/09/02 07:20:53;;;;;;;;;;;;;;;19.40;100.00;101926.66;5073150;28;20044;-72
2021/09/02 07:23:21;;;;;;;;;;;;;;;19.68;100.00;101923.88;5072522;28;20027;-72
2021/09/02 07:25:47;;;;;;;;;;;;;;;20.07;100.00;101934.63;5072945;28;19971;-72
2021/09/02 07:28:13;;;;;;;;;;;;;;;19.85;100.00;101930.44;5073745;28;20297;-72
2021/09/02 07:30:40;;;;;;;;;;;;;;;20.09;100.00;101937.22;5073368;28;20027;-72
2021/09/02 07:33:06;;;;;;;;;;;;;;;19.84;100.00;101928.72;5074162;28;19932;-72
2021/09/02 07:35:33;;;;;;;;;;;;;;;20.10;100.00;101932.59;5073551;28;20035;-72
2021/09/02 07:37:59;;;;;;;;;;;;;;;19.97;100.00;101939.34;5073456;28;20418;-72
2021/09/02 07:40:27;;;;;;;;;;;;;;;20.25;100.00;101953.03;5073477;28;20046;-72
2021/09/02 07:42:53;;;;;;;;;;;;;;;20.07;100.00;101951.16;5072561;28;20034;-72
2021/09/02 07:45:19;;;;;;;;;;;;;;;20.18;100.00;101950.06;5069214;28;20249;-72
2021/09/02 07:47:45;;;;;;;;;;;;;;;20.60;100.00;101948.50;5072086;28;20331;-72
2021/09/02 07:50:12;;;;;;;;;;;;;;;20.78;100.00;101956.75;5061908;28;20024;-72
2021/09/02 07:52:39;;;;;;;;;;;;;;;20.87;100.00;101947.50;5062589;28;20427;-72
2021/09/02 07:55:06;;;;;;;;;;;;;;;21.10;100.00;101957.97;5072210;28;19925;-72
2021/09/02 07:57:33;;;;;;;;;;;;;;;21.18;100.00;101955.25;5060791;28;19971;-72
2021/09/02 08:00:00;;;;;;;;;;;;;;;21.26;100.00;101942.50;5070661;28;20034;-72
2021/09/02 08:02:26;;;;;;;;;;;;;;;21.06;100.00;101956.59;5073065;28;20467;-72
2021/09/02 08:04:52;;;;;;;;;;;;;;;21.28;100.00;101955.13;5071444;28;20023;-72
2021/09/02 08:07:18;;;;;;;;;;;;;;;21.32;100.00;101956.50;5068898;28;19931;-73
2021/09/02 08:09:46;;;;;;;;;;;;;;;21.23;100.00;101963.91;5072886;28;20023;-72
2021/09/02 08:12:13;;;;;;;;;;;;;;;21.38;100.00;101952.25;5072479;28;19932;-73
2021/09/02 08:14:40;;;;;;;;;;;;;;;21.93;100.00;101958.28;5072876;28;19924;-72
2021/09/02 08:17:06;;;;;;;;;;;;;;;22.35;100.00;101962.84;5072653;28;20581;-73
2021/09/02 08:19:33;;;;;;;;;;;;;;;21.65;100.00;101958.59;5055292;28;20015;-73
2021/09/02 08:21:59;;;;;;;;;;;;;;;21.32;100.00;101959.28;5072761;28;19967;-73
2021/09/02 08:24:25;;;;;;;;;;;;;;;21.49;100.00;101962.13;5072649;28;20022;-73
2021/09/02 08:26:53;;;;;;;;;;;;;;;21.83;100.00;101962.09;5072852;28;20412;-73
2021/09/02 08:29:19;;;;;;;;;;;;;;;21.68;100.00;101967.38;5072548;28;19925;-73
2021/09/02 08:31:47;;;;;;;;;;;;;;;21.82;100.00;101960.34;5072535;28;20019;-73
2021/09/02 08:34:13;;;;;;;;;;;;;;;21.89;100.00;101968.84;5073153;28;20039;-72
2021/09/02 08:36:39;;;;;;;;;;;;;;;21.82;100.00;101965.88;5072404;28;20011;-72
2021/09/02 08:39:05;;;;;;;;;;;;;;;21.75;100.00;101964.81;5072872;28;20459;-73
2021/09/02 08:41:34;;;;;;;;;;;;;;;21.98;100.00;101964.16;5072612;28;20027;-72
2021/09/02 08:44:01;;;;;;;;;;;;;;;22.09;100.00;101963.84;5072862;28;20015;-73
2021/09/02 08:46:28;;;;;;;;;;;;;;;22.01;100.00;101967.47;5072635;28;19929;-72
2021/09/02 08:48:59;;;;;;;;;;;;;;;21.80;100.00;101972.59;5072245;28;19924;-73
2021/09/02 08:51:26;;;;;;;;;;;;;;;22.34;100.00;101969.38;5072485;28;19924;-73
2021/09/02 08:53:54;;;;;;;;;;;;;;;22.72;100.00;101972.53;5072328;28;19925;-73
2021/09/02 08:56:20;;;;;;;;;;;;;;;22.77;100.00;101975.63;5072476;28;20530;-73
2021/09/02 08:58:47;;;;;;;;;;;;;;;22.26;100.00;101980.44;5072283;28;20023;-73
2021/09/02 09:01:13;;;;;;;;;;;;;;;22.11;100.00;101978.34;5072249;28;20478;-73
2021/09/02 09:03:39;;;;;;;;;;;;;;;22.22;100.00;101979.91;5072430;28;19978;-73
2021/09/02 09:06:07;;;;;;;;;;;;;;;22.30;100.00;101984.59;5071716;28;20023;-73
2021/09/02 09:08:35;;;;;;;;;;;;;;;22.38;100.00;101984.63;5072136;28;20336;-73
2021/09/02 09:11:15;;;;;;;;;;;;;;;22.38;100.00;101979.97;5071932;28;20396;-73
2021/09/02 09:13:42;;;;;;;;;;;;;;;22.58;100.00;101979.59;5067531;28;20023;-73
2021/09/02 09:16:08;;;;;;;;;;;;;;;22.73;100.00;101982.56;5053949;28;20027;-73
2021/09/02 09:18:40;;;;;;;;;;;;;;;22.29;100.00;101992.03;5052975;28;20184;-73
2021/09/02 09:21:08;;;;;;;;;;;;;;;22.68;100.00;101990.50;5055707;28;20019;-73
2021/09/02 09:23:50;;;;;;;;;;;;;;;22.55;100.00;101991.91;5056583;28;19931;-72
2021/09/02 09:26:17;;;;;;;;;;;;;;;23.28;100.00;101991.13;5055142;28;20410;-73
2021/09/02 09:28:43;;;;;;;;;;;;;;;23.55;100.00;101990.63;5056049;28;20023;-72
2021/09/02 09:31:23;;;;;;;;;;;;;;;23.36;100.00;101986.41;5057239;28;20447;-71
2021/09/02 09:33:51;;;;;;;;;;;;;;;23.65;100.00;101981.25;5063616;28;20357;-71
2021/09/02 09:36:20;;;;;;;;;;;;;;;24.32;100.00;101983.44;5056617;28;19929;-70
2021/09/02 09:38:56;;;;;;;;;;;;;;;24.21;100.00;101984.75;5056878;28;19964;-71
2021/09/02 09:41:29;;;;;;;;;;;;;;;23.42;100.00;101986.72;5058357;28;20023;-72
2021/09/02 09:44:14;;;;;;;;;;;;;;;23.04;100.00;101990.97;5060624;28;19931;-73
2021/09/02 09:46:40;;;;;;;;;;;;;;;23.07;100.00;102001.66;5051175;28;19960;-72
2021/09/02 09:49:06;;;;;;;;;;;;;;;23.13;100.00;101999.25;5054796;28;19931;-73
2021/09/02 09:51:34;;;;;;;;;;;;;;;23.86;100.00;102000.84;5053658;28;20320;-73
2021/09/02 09:54:02;;;;;;;;;;;;;;;23.80;100.00;101990.53;5068986;28;20308;-73
2021/09/02 09:56:28;;;;;;;;;;;;;;;24.16;100.00;101995.53;5067613;28;19928;-73
2021/09/02 09:58:55;;;;;;;;;;;;;;;24.15;100.00;101988.25;5067895;28;19989;-73
2021/09/02 10:01:22;;;;;;;;;;;;;;;23.98;100.00;101990.25;5065492;28;20023;-73
2021/09/02 10:03:51;;;;;;;;;;;;;;;23.31;100.00;101988.84;5055269;28;20019;-73
2021/09/02 10:06:18;;;;;;;;;;;;;;;23.31;100.00;101986.06;5053778;28;20415;-73
2021/09/02 10:08:46;;;;;;;;;;;;;;;23.44;100.00;101979.06;5058005;28;20007;-74
2021/09/02 10:11:14;;;;;;;;;;;;;;;23.64;100.00;101980.38;5070151;28;19977;-73
2021/09/02 10:13:40;;;;;;;;;;;;;;;23.74;100.00;101978.25;5068187;28;19924;-74
2021/09/02 10:16:07;;;;;;;;;;;;;;;23.56;100.00;101986.81;5070315;28;19989;-73
2021/09/02 10:18:35;;;;;;;;;;;;;;;24.03;100.00;101984.19;5054054;28;19928;-74
2021/09/02 10:21:04;;;;;;;;;;;;;;;23.73;100.00;101982.06;5066860;28;20050;-74
2021/09/02 10:23:30;;;;;;;;;;;;;;;24.29;100.00;101982.94;5070609;28;19925;-74
2021/09/02 10:25:58;;;;;;;;;;;;;;;23.97;100.00;101983.00;5068317;28;19994;-74
2021/09/02 10:28:26;;;;;;;;;;;;;;;24.21;100.00;101983.84;5068539;28;20409;-74
2021/09/02 10:30:53;;;;;;;;;;;;;;;23.96;100.00;101983.16;5058825;28;19929;-73
2021/09/02 10:33:30;;;;;;;;;;;;;;;23.51;100.00;101985.66;5069889;28;20356;-73
2021/09/02 10:35:57;;;;;;;;;;;;;;;24.02;100.00;101988.84;5067307;28;19928;-73
2021/09/02 10:38:35;;;;;;;;;;;;;;;23.57;100.00;101988.56;5058891;28;20180;-73
2021/09/02 10:41:03;;;;;;;;;;;;;;;23.75;100.00;101990.19;5057178;28;19960;-73
2021/09/02 10:43:49;;;;;;;;;;;;;;;23.42;100.00;101995.88;5050549;28;19928;-74
2021/09/02 10:46:32;;;;;;;;;;;;;;;23.24;100.00;101997.00;5067781;28;20027;-75
2021/09/02 10:49:16;;;;;;;;;;;;;;;22.74;100.00;101998.97;5068456;28;19928;-74
2021/09/02 10:51:43;;;;;;;;;;;;;;;22.97;100.00;101995.50;5049914;28;19928;-74
2021/09/02 10:54:10;;;;;;;;;;;;;;;23.30;100.00;102000.94;5054451;28;20031;-74
2021/09/02 10:56:52;;;;;;;;;;;;;;;23.57;100.00;101999.66;5061817;28;19979;-74
2021/09/02 10:59:33;;;;;;;;;;;;;;;23.24;100.00;102005.31;5054978;28;19970;-74
2021/09/02 11:02:01;;;;;;;;;;;;;;;22.85;100.00;102000.53;5068924;28;19960;-74
2021/09/02 11:04:27;;;;;;;;;;;;;;;22.27;100.00;102004.31;5066839;28;19925;-74
2021/09/02 11:06:54;;;;;;;;;;;;;;;22.05;100.00;102002.03;5056380;28;20460;-74
2021/09/02 11:09:27;;;;;;;;;;;;;;;22.02;100.00;102007.00;5050209;28;19929;-75
2021/09/02 11:11:53;;;;;;;;;;;;;;;22.22;100.00;102018.63;5051674;28;20027;-74
2021/09/02 11:14:20;;;;;;;;;;;;;;;22.28;100.00;102004.13;5064680;28;20076;-74
2021/09/02 11:16:46;;;;;;;;;;;;;;;21.65;100.00;102002.78;5069651;28;20015;-74
2021/09/02 11:19:14;;;;;;;;;;;;;;;21.28;100.00;102015.88;5070185;28;20024;-74
2021/09/02 11:21:40;;;;;;;;;;;;;;;21.64;100.00;102007.44;5070153;28;20023;-74
2021/09/02 11:24:08;;;;;;;;;;;;;;;21.31;100.00;102007.28;5061319;28;19924;-74
2021/09/02 11:26:36;;;;;;;;;;;;;;;21.65;100.00;102006.41;5054105;28;20024;-73
2021/09/02 11:29:03;;;;;;;;;;;;;;;21.00;100.00;102007.75;5070547;28;20423;-74
2021/09/02 11:31:30;;;;;;;;;;;;;;;20.63;100.00;102013.50;5058117;28;20019;-73
2021/09/02 11:33:56;;;;;;;;;;;;;;;20.55;100.00;102020.69;5055402;28;19925;-74
2021/09/02 11:36:24;;;;;;;;;;;;;;;20.34;100.00;102020.16;5071385;28;20017;-73
2021/09/02 11:38:59;;;;;;;;;;;;;;;19.87;100.00;102008.31;5073770;28;20015;-74
2021/09/02 11:41:26;;;;;;;;;;;;;;;19.69;100.00;102010.13;5070993;28;20018;-73
2021/09/02 11:43:52;;;;;;;;;;;;;;;19.52;100.00;102007.19;5055017;28;20019;-74
2021/09/02 11:46:19;;;;;;;;;;;;;;;19.41;100.00;102012.88;5062684;28;20022;-74
2021/09/02 11:48:46;;;;;;;;;;;;;;;19.93;100.00;102009.56;5071322;28;19930;-73
2021/09/02 11:51:18;;;;;;;;;;;;;;;20.31;100.00;102017.69;5071636;28;20455;-73
2021/09/02 11:53:47;;;;;;;;;;;;;;;20.29;100.00;102008.75;5072859;28;19924;-73
2021/09/02 11:56:16;;;;;;;;;;;;;;;20.86;100.00;102000.97;5069554;28;19924;-73
2021/09/02 11:58:43;;;;;;;;;;;;;;;20.94;100.00;102002.91;5061989;28;19935;-73
2021/09/02 12:01:09;;;;;;;;;;;;;;;21.57;100.00;101992.56;5072472;28;19967;-73
2021/09/02 12:03:36;;;;;;;;;;;;;;;21.68;100.00;101994.16;5072981;28;19929;-73
2021/09/02 12:06:03;;;;;;;;;;;;;;;21.78;100.00;101988.47;5071144;28;19929;-73
2021/09/02 12:08:29;;;;;;;;;;;;;;;22.31;100.00;101992.72;5055456;28;20027;-71
2021/09/02 12:10:57;;;;;;;;;;;;;;;22.30;100.00;101998.44;5070186;28;19953;-71
2021/09/02 12:13:24;;;;;;;;;;;;;;;22.47;100.00;101991.03;5069736;28;20369;-71
2021/09/02 12:16:04;;;;;;;;;;;;;;;22.19;100.00;101994.09;5063893;28;20331;-71
2021/09/02 12:18:31;;;;;;;;;;;;;;;21.91;100.00;101988.84;5069341;28;20362;-71
2021/09/02 12:21:06;;;;;;;;;;;;;;;22.33;100.00;101984.28;5073235;28;20388;-70
2021/09/02 12:23:41;;;;;;;;;;;;;;;22.48;100.00;101973.41;5071033;28;19936;-72
2021/09/02 12:26:09;;;;;;;;;;;;;;;21.77;100.00;101982.09;5068330;28;19926;-71
2021/09/02 12:28:36;;;;;;;;;;;;;;;21.95;100.00;101975.56;5054742;28;19986;-71